createdAt,value
2023-05-15T00:00:25.983Z,571.00
2023-05-15T00:01:26.046Z,566.00
2023-05-15T00:02:26.143Z,570.00
2023-05-15T00:03:26.229Z,576.00
2023-05-15T00:04:26.354Z,570.00
2023-05-15T00:05:26.396Z,576.00
2023-05-15T00:06:26.194Z,572.00
2023-05-15T00:07:26.184Z,569.00
2023-05-15T00:08:26.201Z,571.00
2023-05-15T00:09:26.236Z,575.00
2023-05-15T00:10:26.251Z,573.00
2023-05-15T00:11:26.315Z,566.00
2023-05-15T00:12:26.378Z,571.00
2023-05-15T00:13:26.439Z,573.00
2023-05-15T00:14:26.653Z,565.00
2023-05-15T00:15:26.760Z,570.00
2023-05-15T00:16:26.765Z,569.00
2023-05-15T00:17:26.934Z,577.00
2023-05-15T00:18:27.033Z,573.00
2023-05-15T00:19:27.184Z,569.00
2023-05-15T00:20:27.295Z,570.00
2023-05-15T00:21:27.406Z,568.00
2023-05-15T00:22:27.541Z,569.00
2023-05-15T00:23:27.637Z,570.00
2023-05-15T00:24:27.743Z,570.00
2023-05-15T00:25:27.852Z,570.00
2023-05-15T00:26:28.001Z,572.00
2023-05-15T00:27:28.110Z,572.00
2023-05-15T00:28:28.166Z,566.00
2023-05-15T00:29:28.278Z,570.00
2023-05-15T00:30:28.406Z,577.00
2023-05-15T00:31:28.546Z,575.00
2023-05-15T00:32:28.620Z,573.00
2023-05-15T00:33:28.723Z,575.00
2023-05-15T00:34:28.825Z,566.00
2023-05-15T00:35:29.084Z,577.00
2023-05-15T00:36:29.061Z,570.00
2023-05-15T00:37:29.227Z,565.00
2023-05-15T00:38:29.266Z,566.00
2023-05-15T00:39:29.391Z,568.00
2023-05-15T00:40:29.527Z,571.00
2023-05-15T00:41:29.652Z,569.00
2023-05-15T00:42:29.804Z,568.00
2023-05-15T00:43:29.914Z,570.00
2023-05-15T00:44:30.031Z,569.00
2023-05-15T00:45:30.195Z,569.00
2023-05-15T00:46:30.404Z,571.00
2023-05-15T00:47:30.471Z,567.00
2023-05-15T00:48:30.677Z,571.00
2023-05-15T00:49:30.704Z,568.00
2023-05-15T00:50:30.832Z,572.00
2023-05-15T00:51:30.999Z,567.00
2023-05-15T00:52:31.126Z,569.00
2023-05-15T00:53:31.278Z,573.00
2023-05-15T00:54:31.349Z,572.00
2023-05-15T00:55:31.484Z,566.00
2023-05-15T00:56:31.657Z,569.00
2023-05-15T00:57:31.758Z,570.00
2023-05-15T00:58:31.895Z,568.00
2023-05-15T00:59:32.034Z,569.00
2023-05-15T01:00:32.283Z,570.00
2023-05-15T01:01:32.420Z,573.00
2023-05-15T01:02:32.476Z,571.00
2023-05-15T01:03:32.641Z,570.00
2023-05-15T01:04:32.741Z,569.00
2023-05-15T01:05:32.845Z,562.00
2023-05-15T01:06:32.944Z,568.00
2023-05-15T01:07:33.046Z,571.00
2023-05-15T01:08:33.219Z,567.00
2023-05-15T01:09:33.525Z,570.00
2023-05-15T01:10:33.473Z,569.00
2023-05-15T01:11:33.636Z,562.00
2023-05-15T01:12:33.777Z,569.00
2023-05-15T01:13:33.910Z,573.00
2023-05-15T01:14:34.082Z,569.00
2023-05-15T01:15:34.239Z,568.00
2023-05-15T01:16:34.352Z,565.00
2023-05-15T01:17:34.494Z,571.00
2023-05-15T01:18:34.690Z,571.00
2023-05-15T01:19:34.838Z,567.00
2023-05-15T01:20:34.937Z,565.00
2023-05-15T01:21:35.009Z,567.00
2023-05-15T01:22:35.127Z,569.00
2023-05-15T01:23:35.269Z,569.00
2023-05-15T01:24:35.424Z,573.00
2023-05-15T01:25:35.576Z,568.00
2023-05-15T01:26:35.758Z,569.00
2023-05-15T01:27:35.867Z,564.00
2023-05-15T01:28:35.890Z,575.00
2023-05-15T01:29:36.111Z,569.00
2023-05-15T01:30:36.062Z,571.00
2023-05-15T01:31:36.254Z,571.00
2023-05-15T01:32:36.379Z,572.00
2023-05-15T01:33:36.452Z,573.00
2023-05-15T01:34:36.614Z,573.00
2023-05-15T01:35:36.659Z,566.00
2023-05-15T01:36:36.787Z,567.00
2023-05-15T01:37:36.888Z,566.00
2023-05-15T01:38:37.035Z,568.00
2023-05-15T01:39:37.173Z,570.00
2023-05-15T01:40:37.350Z,571.00
2023-05-15T01:41:37.481Z,566.00
2023-05-15T01:42:37.604Z,565.00
2023-05-15T01:43:37.723Z,574.00
2023-05-15T01:44:37.866Z,565.00
2023-05-15T01:45:37.997Z,572.00
2023-05-15T01:46:38.192Z,570.00
2023-05-15T01:47:38.287Z,569.00
2023-05-15T01:48:38.350Z,573.00
2023-05-15T01:49:38.511Z,568.00
2023-05-15T01:50:38.669Z,568.00
2023-05-15T01:51:38.759Z,578.00
2023-05-15T01:52:38.909Z,562.00
2023-05-15T01:53:39.073Z,568.00
2023-05-15T01:54:39.150Z,566.00
2023-05-15T01:55:39.307Z,565.00
2023-05-15T01:56:39.442Z,571.00
2023-05-15T01:57:39.615Z,568.00
2023-05-15T01:58:39.829Z,569.00
2023-05-15T01:59:39.909Z,562.00
2023-05-15T02:00:41.619Z,565.00
2023-05-15T02:01:40.122Z,573.00
2023-05-15T02:02:40.167Z,568.00
2023-05-15T02:03:40.288Z,570.00
2023-05-15T02:04:40.206Z,562.00
2023-05-15T02:05:40.212Z,565.00
2023-05-15T02:06:40.207Z,563.00
2023-05-15T02:07:40.268Z,567.00
2023-05-15T02:08:40.334Z,568.00
2023-05-15T02:09:40.387Z,569.00
2023-05-15T02:10:40.408Z,564.00
2023-05-15T02:11:40.526Z,567.00
2023-05-15T02:12:40.622Z,569.00
2023-05-15T02:13:40.694Z,564.00
2023-05-15T02:14:40.638Z,567.00
2023-05-15T02:15:40.686Z,561.00
2023-05-15T02:16:40.751Z,568.00
2023-05-15T02:17:40.736Z,562.00
2023-05-15T02:18:40.818Z,563.00
2023-05-15T02:19:40.771Z,565.00
2023-05-15T02:20:40.829Z,565.00
2023-05-15T02:21:40.944Z,570.00
2023-05-15T02:22:41.012Z,570.00
2023-05-15T02:23:41.052Z,567.00
2023-05-15T02:24:41.070Z,566.00
2023-05-15T02:25:41.073Z,567.00
2023-05-15T02:26:41.076Z,572.00
2023-05-15T02:27:41.073Z,564.00
2023-05-15T02:28:41.046Z,570.00
2023-05-15T02:29:41.171Z,568.00
2023-05-15T02:30:41.228Z,566.00
2023-05-15T02:31:41.437Z,566.00
2023-05-15T02:32:41.427Z,565.00
2023-05-15T02:33:41.323Z,562.00
2023-05-15T02:34:41.357Z,565.00
2023-05-15T02:35:41.346Z,565.00
2023-05-15T02:36:41.354Z,561.00
2023-05-15T02:37:41.358Z,565.00
2023-05-15T02:38:41.376Z,564.00
2023-05-15T02:39:41.363Z,563.00
2023-05-15T02:40:41.441Z,564.00
2023-05-15T02:41:41.526Z,569.00
2023-05-15T02:42:41.797Z,559.00
2023-05-15T02:43:41.844Z,561.00
2023-05-15T02:44:41.960Z,568.00
2023-05-15T02:45:42.147Z,568.00
2023-05-15T02:46:42.272Z,568.00
2023-05-15T02:47:42.479Z,563.00
2023-05-15T02:48:42.648Z,564.00
2023-05-15T02:49:42.797Z,567.00
2023-05-15T02:50:42.934Z,571.00
2023-05-15T02:51:43.096Z,563.00
2023-05-15T02:52:43.297Z,568.00
2023-05-15T02:53:43.423Z,561.00
2023-05-15T02:54:43.523Z,565.00
2023-05-15T02:55:43.695Z,564.00
2023-05-15T02:56:43.758Z,563.00
2023-05-15T02:57:43.900Z,571.00
2023-05-15T02:58:44.064Z,562.00
2023-05-15T02:59:44.342Z,566.00
2023-05-15T03:00:44.330Z,564.00
2023-05-15T03:01:44.479Z,567.00
2023-05-15T03:02:44.602Z,567.00
2023-05-15T03:03:44.836Z,564.00
2023-05-15T03:04:44.836Z,563.00
2023-05-15T03:05:44.915Z,561.00
2023-05-15T03:06:45.104Z,567.00
2023-05-15T03:07:45.138Z,563.00
2023-05-15T03:08:45.214Z,560.00
2023-05-15T03:09:45.382Z,566.00
2023-05-15T03:10:45.535Z,566.00
2023-05-15T03:11:45.676Z,558.00
2023-05-15T03:12:45.749Z,568.00
2023-05-15T03:13:45.898Z,565.00
2023-05-15T03:14:45.970Z,565.00
2023-05-15T03:15:46.177Z,565.00
2023-05-15T03:16:46.293Z,568.00
2023-05-15T03:17:46.482Z,561.00
2023-05-15T03:18:46.532Z,563.00
2023-05-15T03:19:46.613Z,558.00
2023-05-15T03:20:46.770Z,564.00
2023-05-15T03:21:46.904Z,562.00
2023-05-15T03:22:47.045Z,567.00
2023-05-15T03:23:47.291Z,562.00
2023-05-15T03:24:47.304Z,565.00
2023-05-15T03:25:47.419Z,567.00
2023-05-15T03:26:47.589Z,560.00
2023-05-15T03:27:47.692Z,562.00
2023-05-15T03:28:47.847Z,565.00
2023-05-15T03:29:47.980Z,564.00
2023-05-15T03:30:48.050Z,564.00
2023-05-15T03:31:48.320Z,562.00
2023-05-15T03:32:48.404Z,569.00
2023-05-15T03:33:48.445Z,566.00
2023-05-15T03:34:48.551Z,560.00
2023-05-15T03:35:48.704Z,562.00
2023-05-15T03:36:48.725Z,567.00
2023-05-15T03:37:48.857Z,559.00
2023-05-15T03:38:49.000Z,560.00
2023-05-15T03:39:49.080Z,564.00
2023-05-15T03:40:51.081Z,569.00
2023-05-15T03:41:49.326Z,561.00
2023-05-15T03:42:49.298Z,562.00
2023-05-15T03:43:49.323Z,565.00
2023-05-15T03:44:49.342Z,566.00
2023-05-15T03:45:49.295Z,556.00
2023-05-15T03:46:49.351Z,562.00
2023-05-15T03:47:49.413Z,558.00
2023-05-15T03:48:49.322Z,563.00
2023-05-15T03:49:49.331Z,564.00
2023-05-15T03:50:49.291Z,562.00
2023-05-15T03:51:49.402Z,561.00
2023-05-15T03:52:49.507Z,559.00
2023-05-15T03:53:49.561Z,562.00
2023-05-15T03:54:49.553Z,566.00
2023-05-15T03:55:49.573Z,564.00
2023-05-15T03:56:49.574Z,563.00
2023-05-15T03:57:49.586Z,560.00
2023-05-15T03:58:49.540Z,565.00
2023-05-15T03:59:49.550Z,561.00
2023-05-15T04:00:49.659Z,557.00
2023-05-15T04:02:03.648Z,558.00
2023-05-15T04:02:50.753Z,558.00
2023-05-15T04:03:49.695Z,559.00
2023-05-15T04:04:49.680Z,558.00
2023-05-15T04:05:49.627Z,559.00
2023-05-15T04:06:49.593Z,558.00
2023-05-15T04:07:49.682Z,565.00
2023-05-15T04:08:49.730Z,563.00
2023-05-15T04:09:49.612Z,557.00
2023-05-15T04:10:49.627Z,554.00
2023-05-15T04:11:49.630Z,546.00
2023-05-15T04:12:49.587Z,545.00
2023-05-15T04:13:49.589Z,545.00
2023-05-15T04:14:50.223Z,540.00
2023-05-15T04:15:49.602Z,541.00
2023-05-15T04:16:49.567Z,544.00
2023-05-15T04:17:49.620Z,542.00
2023-05-15T04:18:49.610Z,536.00
2023-05-15T04:19:49.527Z,535.00
2023-05-15T04:20:49.530Z,532.00
2023-05-15T04:21:49.551Z,534.00
2023-05-15T04:22:49.518Z,533.00
2023-05-15T04:23:49.516Z,536.00
2023-05-15T04:24:49.491Z,523.00
2023-05-15T04:25:49.511Z,523.00
2023-05-15T04:26:49.543Z,520.00
2023-05-15T04:27:49.505Z,515.00
2023-05-15T04:29:02.933Z,517.00
2023-05-15T04:29:51.187Z,518.00
2023-05-15T04:30:49.459Z,519.00
2023-05-15T04:31:49.481Z,517.00
2023-05-15T04:32:49.591Z,514.00
2023-05-15T04:33:51.284Z,517.00
2023-05-15T04:34:49.421Z,515.00
2023-05-15T04:35:49.434Z,512.00
2023-05-15T04:36:49.449Z,510.00
2023-05-15T04:37:49.443Z,519.00
2023-05-15T04:38:49.414Z,522.00
2023-05-15T04:39:49.459Z,521.00
2023-05-15T04:40:49.419Z,531.00
2023-05-15T04:41:49.412Z,523.00
2023-05-15T04:42:49.441Z,533.00
2023-05-15T04:43:49.385Z,523.00
2023-05-15T04:44:49.401Z,527.00
2023-05-15T04:45:49.361Z,526.00
2023-05-15T04:46:49.371Z,519.00
2023-05-15T04:47:49.438Z,528.00
2023-05-15T04:48:49.481Z,536.00
2023-05-15T04:49:49.424Z,537.00
2023-05-15T04:50:49.492Z,537.00
2023-05-15T04:51:49.443Z,526.00
2023-05-15T04:52:49.452Z,534.00
2023-05-15T04:53:49.582Z,531.00
2023-05-15T04:54:49.549Z,538.00
2023-05-15T04:55:49.560Z,541.00
2023-05-15T04:56:49.581Z,526.00
2023-05-15T04:57:49.589Z,516.00
2023-05-15T04:58:49.592Z,537.00
2023-05-15T04:59:49.644Z,524.00
2023-05-15T05:00:49.693Z,529.00
2023-05-15T05:01:49.822Z,541.00
2023-05-15T05:02:49.763Z,528.00
2023-05-15T05:03:49.761Z,530.00
2023-05-15T05:04:49.743Z,533.00
2023-05-15T05:05:49.813Z,536.00
2023-05-15T05:06:49.878Z,532.00
2023-05-15T05:07:50.027Z,533.00
2023-05-15T05:08:49.979Z,518.00
2023-05-15T05:09:49.980Z,522.00
2023-05-15T05:10:49.975Z,508.00
2023-05-15T05:11:49.997Z,508.00
2023-05-15T05:12:50.093Z,506.00
2023-05-15T05:13:50.266Z,504.00
2023-05-15T05:14:50.414Z,500.00
2023-05-15T05:15:50.558Z,506.00
2023-05-15T05:16:50.635Z,503.00
2023-05-15T05:17:50.936Z,507.00
2023-05-15T05:18:51.026Z,507.00
2023-05-15T05:19:51.033Z,504.00
2023-05-15T05:20:51.065Z,501.00
2023-05-15T05:21:51.243Z,502.00
2023-05-15T05:22:51.392Z,503.00
2023-05-15T05:23:51.467Z,510.00
2023-05-15T05:24:51.696Z,504.00
2023-05-15T05:25:51.746Z,503.00
2023-05-15T05:26:51.937Z,503.00
2023-05-15T05:27:52.068Z,509.00
2023-05-15T05:28:52.183Z,503.00
2023-05-15T05:29:52.367Z,500.00
2023-05-15T05:30:52.536Z,505.00
2023-05-15T05:31:52.779Z,500.00
2023-05-15T05:32:52.879Z,507.00
2023-05-15T05:33:52.948Z,504.00
2023-05-15T05:34:53.028Z,507.00
2023-05-15T05:35:53.147Z,502.00
2023-05-15T05:36:53.335Z,504.00
2023-05-15T05:37:53.433Z,514.00
2023-05-15T05:38:53.558Z,514.00
2023-05-15T05:39:53.732Z,516.00
2023-05-15T05:40:53.832Z,527.00
2023-05-15T05:41:53.948Z,541.00
2023-05-15T05:42:54.091Z,544.00
2023-05-15T05:43:54.198Z,556.00
2023-05-15T05:44:54.375Z,576.00
2023-05-15T05:45:54.531Z,581.00
2023-05-15T05:46:54.771Z,590.00
2023-05-15T05:47:54.923Z,600.00
2023-05-15T05:48:55.048Z,610.00
2023-05-15T05:49:55.230Z,617.00
2023-05-15T05:50:55.268Z,629.00
2023-05-15T05:51:55.447Z,638.00
2023-05-15T05:52:55.647Z,643.00
2023-05-15T05:53:55.806Z,651.00
2023-05-15T05:54:55.979Z,660.00
2023-05-15T05:55:56.151Z,691.00
2023-05-15T05:56:56.333Z,707.00
2023-05-15T05:57:56.448Z,703.00
2023-05-15T05:58:56.610Z,731.00
2023-05-15T05:59:56.826Z,741.00
2023-05-15T06:00:56.969Z,672.00
2023-05-15T06:01:57.224Z,654.00
2023-05-15T06:02:57.552Z,645.00
2023-05-15T06:03:57.729Z,632.00
2023-05-15T06:04:57.717Z,645.00
2023-05-15T06:05:57.883Z,632.00
2023-05-15T06:06:58.084Z,624.00
2023-05-15T06:07:58.218Z,610.00
2023-05-15T06:08:58.434Z,614.00
2023-05-15T06:09:58.538Z,575.00
2023-05-15T06:10:58.696Z,571.00
2023-05-15T06:11:58.822Z,549.00
2023-05-15T06:12:58.998Z,564.00
2023-05-15T06:13:59.234Z,563.00
2023-05-15T06:14:59.384Z,563.00
2023-05-15T06:15:59.548Z,560.00
2023-05-15T06:16:59.856Z,556.00
2023-05-15T06:17:59.971Z,552.00
2023-05-15T06:19:00.255Z,538.00
2023-05-15T06:20:00.281Z,536.00
2023-05-15T06:21:00.435Z,527.00
2023-05-15T06:22:00.875Z,513.00
2023-05-15T06:23:00.758Z,506.00
2023-05-15T06:24:00.925Z,503.00
2023-05-15T06:25:01.138Z,511.00
2023-05-15T06:26:01.295Z,516.00
2023-05-15T06:27:01.838Z,510.00
2023-05-15T06:28:02.748Z,500.00
2023-05-15T06:29:01.710Z,506.00
2023-05-15T06:30:01.688Z,506.00
2023-05-15T06:31:01.796Z,511.00
2023-05-15T06:32:01.700Z,503.00
2023-05-15T06:33:01.859Z,500.00
2023-05-15T06:34:01.934Z,499.00
2023-05-15T06:35:01.980Z,500.00
2023-05-15T06:36:02.112Z,515.00
2023-05-15T06:37:02.172Z,515.00
2023-05-15T06:38:02.153Z,517.00
2023-05-15T06:39:02.299Z,525.00
2023-05-15T06:40:02.224Z,537.00
2023-05-15T06:41:02.212Z,546.00
2023-05-15T06:42:02.233Z,553.00
2023-05-15T06:43:02.448Z,565.00
2023-05-15T06:44:02.242Z,565.00
2023-05-15T06:45:02.287Z,561.00
2023-05-15T06:46:02.429Z,549.00
2023-05-15T06:47:02.435Z,560.00
2023-05-15T06:48:02.504Z,556.00
2023-05-15T06:49:02.393Z,572.00
2023-05-15T06:50:02.434Z,559.00
2023-05-15T06:51:02.453Z,557.00
2023-05-15T06:52:02.442Z,551.00
2023-05-15T06:53:02.825Z,553.00
2023-05-15T06:54:02.515Z,555.00
2023-05-15T06:55:02.570Z,552.00
2023-05-15T06:56:02.645Z,541.00
2023-05-15T06:57:02.709Z,540.00
2023-05-15T06:58:02.698Z,539.00
2023-05-15T06:59:02.803Z,527.00
2023-05-15T07:00:03.795Z,513.00
2023-05-15T07:01:02.867Z,516.00
2023-05-15T07:02:03.031Z,511.00
2023-05-15T07:03:03.024Z,510.00
2023-05-15T07:04:03.162Z,517.00
2023-05-15T07:05:03.152Z,522.00
2023-05-15T07:06:03.165Z,520.00
2023-05-15T07:07:03.218Z,524.00
2023-05-15T07:08:04.311Z,528.00
2023-05-15T07:09:03.377Z,526.00
2023-05-15T07:10:03.389Z,533.00
2023-05-15T07:11:03.504Z,515.00
2023-05-15T07:12:03.558Z,508.00
2023-05-15T07:13:04.331Z,517.00
2023-05-15T07:14:03.679Z,541.00
2023-05-15T07:15:03.970Z,540.00
2023-05-15T07:16:03.750Z,525.00
2023-05-15T07:17:03.939Z,536.00
2023-05-15T07:18:04.356Z,527.00
2023-05-15T07:19:04.333Z,540.00
2023-05-15T07:20:05.216Z,527.00
2023-05-15T07:21:04.346Z,534.00
2023-05-15T07:22:04.664Z,542.00
2023-05-15T07:23:04.462Z,555.00
2023-05-15T07:24:04.464Z,558.00
2023-05-15T07:25:04.522Z,568.00
2023-05-15T07:26:04.640Z,600.00
2023-05-15T07:27:04.621Z,576.00
2023-05-15T07:28:04.702Z,565.00
2023-05-15T07:29:04.764Z,553.00
2023-05-15T07:30:04.813Z,543.00
2023-05-15T07:31:04.931Z,552.00
2023-05-15T07:32:06.846Z,528.00
2023-05-15T07:33:05.010Z,494.00
2023-05-15T07:34:06.880Z,500.00
2023-05-15T07:35:04.970Z,500.00
2023-05-15T07:36:04.960Z,504.00
2023-05-15T07:37:04.957Z,520.00
2023-05-15T07:38:05.047Z,543.00
2023-05-15T07:39:05.278Z,555.00
2023-05-15T07:40:05.028Z,563.00
2023-05-15T07:41:05.086Z,572.00
2023-05-15T07:42:05.128Z,580.00
2023-05-15T07:43:05.057Z,592.00
2023-05-15T07:44:05.134Z,609.00
2023-05-15T07:45:05.234Z,613.00
2023-05-15T07:46:05.261Z,631.00
2023-05-15T07:47:05.238Z,631.00
2023-05-15T07:48:05.382Z,646.00
2023-05-15T07:49:05.351Z,649.00
2023-05-15T07:50:05.476Z,664.00
2023-05-15T07:51:05.459Z,684.00
2023-05-15T07:52:05.522Z,714.00
2023-05-15T07:53:05.544Z,748.00
2023-05-15T07:54:05.603Z,763.00
2023-05-15T07:55:05.590Z,798.00
2023-05-15T07:56:05.649Z,812.00
2023-05-15T07:57:05.658Z,832.00
2023-05-15T07:58:05.706Z,832.00
2023-05-15T07:59:05.736Z,853.00
2023-05-15T08:00:05.937Z,857.00
2023-05-15T08:01:05.906Z,886.00
2023-05-15T08:02:05.798Z,904.00
2023-05-15T08:03:05.945Z,911.00
2023-05-15T08:04:05.915Z,933.00
2023-05-15T08:05:05.874Z,936.00
2023-05-15T08:06:05.869Z,946.00
2023-05-15T08:07:05.886Z,969.00
2023-05-15T08:08:05.884Z,989.00
2023-05-15T08:09:05.906Z,1002.00
2023-05-15T08:10:05.900Z,1039.00
2023-05-15T08:11:05.990Z,1069.00
2023-05-15T08:12:05.907Z,1084.00
2023-05-15T08:13:05.908Z,1098.00
2023-05-15T08:14:06.039Z,1116.00
2023-05-15T08:15:06.589Z,1118.00
2023-05-15T08:16:06.279Z,1134.00
2023-05-15T08:17:06.311Z,1141.00
2023-05-15T08:18:06.087Z,1156.00
2023-05-15T08:19:06.231Z,1167.00
2023-05-15T08:20:05.958Z,1179.00
2023-05-15T08:21:05.969Z,1173.00
2023-05-15T08:22:05.985Z,1180.00
2023-05-15T08:23:05.983Z,1211.00
2023-05-15T08:24:05.944Z,1215.00
2023-05-15T08:25:05.995Z,1258.00
2023-05-15T08:26:06.068Z,1276.00
2023-05-15T08:27:06.008Z,1300.00
2023-05-15T08:28:06.021Z,1314.00
2023-05-15T08:29:05.968Z,1320.00
2023-05-15T08:30:06.080Z,1332.00
2023-05-15T08:31:06.144Z,1124.00
2023-05-15T08:32:06.049Z,896.00
2023-05-15T08:33:06.360Z,677.00
2023-05-15T08:34:06.142Z,588.00
2023-05-15T08:35:06.214Z,551.00
2023-05-15T08:36:06.312Z,507.00
2023-05-15T08:37:06.343Z,500.00
2023-05-15T08:38:06.306Z,500.00
2023-05-15T08:39:06.194Z,502.00
2023-05-15T08:40:06.271Z,500.00
2023-05-15T08:41:06.472Z,502.00
2023-05-15T08:42:06.320Z,504.00
2023-05-15T08:43:06.727Z,505.00
2023-05-15T08:44:09.819Z,520.00
2023-05-15T08:45:06.332Z,530.00
2023-05-15T08:46:06.683Z,532.00
2023-05-15T08:47:06.504Z,543.00
2023-05-15T08:48:06.362Z,573.00
2023-05-15T08:49:06.346Z,599.00
2023-05-15T08:50:06.346Z,632.00
2023-05-15T08:51:06.334Z,646.00
2023-05-15T08:52:06.274Z,675.00
2023-05-15T08:53:09.740Z,725.00
2023-05-15T08:54:06.310Z,727.00
2023-05-15T08:55:06.311Z,742.00
2023-05-15T08:56:06.262Z,783.00
2023-05-15T08:57:06.341Z,848.00
2023-05-15T08:58:06.338Z,977.00
2023-05-15T08:59:06.285Z,1000.00
2023-05-15T09:00:08.208Z,1063.00
2023-05-15T09:01:06.451Z,1065.00
2023-05-15T09:02:06.604Z,1073.00
2023-05-15T09:03:06.597Z,1099.00
2023-05-15T09:04:06.953Z,1136.00
2023-05-15T09:05:06.557Z,1213.00
2023-05-15T09:06:06.697Z,1234.00
2023-05-15T09:07:06.555Z,1261.00
2023-05-15T09:08:06.670Z,1290.00
2023-05-15T09:09:06.598Z,1324.00
2023-05-15T09:10:06.871Z,1343.00
2023-05-15T09:11:06.615Z,1370.00
2023-05-15T09:12:06.617Z,1382.00
2023-05-15T09:13:06.693Z,1415.00
2023-05-15T09:14:06.714Z,1435.00
2023-05-15T09:15:06.867Z,1474.00
2023-05-15T09:16:06.706Z,1496.00
2023-05-15T09:17:06.869Z,1521.00
2023-05-15T09:18:06.786Z,1541.00
2023-05-15T09:19:06.724Z,1563.00
2023-05-15T09:20:07.356Z,1631.00
2023-05-15T09:21:06.752Z,1631.00
2023-05-15T09:22:06.762Z,1642.00
2023-05-15T09:23:06.767Z,1672.00
2023-05-15T09:24:06.764Z,1679.00
2023-05-15T09:25:06.819Z,1703.00
2023-05-15T09:26:06.905Z,1719.00
2023-05-15T09:27:06.921Z,1732.00
2023-05-15T09:28:07.351Z,1752.00
2023-05-15T09:29:07.333Z,1766.00
2023-05-15T09:30:07.071Z,1784.00
2023-05-15T09:31:07.030Z,1808.00
2023-05-15T09:32:07.399Z,1837.00
2023-05-15T09:33:08.963Z,1858.00
2023-05-15T09:34:07.391Z,1873.00
2023-05-15T09:35:07.245Z,1854.00
2023-05-15T09:36:07.303Z,1740.00
2023-05-15T09:37:07.401Z,1643.00
2023-05-15T09:38:07.327Z,1568.00
2023-05-15T09:39:07.333Z,1576.00
2023-05-15T09:40:07.338Z,1627.00
2023-05-15T09:41:07.406Z,1655.00
2023-05-15T09:42:07.345Z,1693.00
2023-05-15T09:43:07.370Z,1671.00
2023-05-15T09:44:07.375Z,1667.00
2023-05-15T09:45:07.370Z,1653.00
2023-05-15T09:46:07.586Z,1667.00
2023-05-15T09:47:07.475Z,1659.00
2023-05-15T09:48:07.472Z,1661.00
2023-05-15T09:49:08.336Z,1662.00
2023-05-15T09:50:07.450Z,1668.00
2023-05-15T09:51:07.496Z,1678.00
2023-05-15T09:52:07.485Z,1688.00
2023-05-15T09:53:07.519Z,1706.00
2023-05-15T09:54:07.600Z,1669.00
2023-05-15T09:55:07.628Z,1547.00
2023-05-15T09:56:07.658Z,1366.00
2023-05-15T09:57:07.642Z,1277.00
2023-05-15T09:58:07.624Z,1226.00
2023-05-15T09:59:07.630Z,1221.00
2023-05-15T10:00:07.881Z,1283.00
2023-05-15T10:01:07.861Z,1315.00
2023-05-15T10:02:07.637Z,1320.00
2023-05-15T10:03:07.717Z,1325.00
2023-05-15T10:04:07.662Z,1325.00
2023-05-15T10:05:08.400Z,1335.00
2023-05-15T10:06:07.742Z,1342.00
2023-05-15T10:07:07.667Z,1346.00
2023-05-15T10:08:07.681Z,1347.00
2023-05-15T10:09:07.703Z,1376.00
2023-05-15T10:10:07.719Z,1383.00
2023-05-15T10:11:07.740Z,1393.00
2023-05-15T10:12:08.976Z,1410.00
2023-05-15T10:13:08.006Z,1422.00
2023-05-15T10:14:07.948Z,1426.00
2023-05-15T10:15:07.986Z,1443.00
2023-05-15T10:16:08.354Z,1445.00
2023-05-15T10:17:08.146Z,1413.00
2023-05-15T10:18:08.187Z,1429.00
2023-05-15T10:19:08.314Z,1438.00
2023-05-15T10:20:08.388Z,1459.00
2023-05-15T10:21:08.333Z,1462.00
2023-05-15T10:22:08.383Z,1451.00
2023-05-15T10:23:08.454Z,1454.00
2023-05-15T10:24:08.558Z,1480.00
2023-05-15T10:25:08.870Z,1450.00
2023-05-15T10:26:08.658Z,1263.00
2023-05-15T10:27:08.746Z,1152.00
2023-05-15T10:28:08.788Z,1090.00
2023-05-15T10:29:08.988Z,1125.00
2023-05-15T10:30:08.971Z,1067.00
2023-05-15T10:31:08.831Z,1030.00
2023-05-15T10:32:10.360Z,965.00
2023-05-15T10:33:08.846Z,971.00
2023-05-15T10:34:08.791Z,1022.00
2023-05-15T10:35:08.807Z,1048.00
2023-05-15T10:36:08.791Z,1065.00
2023-05-15T10:37:08.737Z,1083.00
2023-05-15T10:38:08.823Z,1072.00
2023-05-15T10:39:08.809Z,1091.00
2023-05-15T10:40:08.817Z,1096.00
2023-05-15T10:41:17.178Z,1123.00
2023-05-15T10:42:09.862Z,1125.00
2023-05-15T10:43:08.899Z,1131.00
2023-05-15T10:44:08.981Z,1146.00
2023-05-15T10:45:08.866Z,1179.00
2023-05-15T10:46:08.824Z,1214.00
2023-05-15T10:47:09.188Z,1243.00
2023-05-15T10:48:08.811Z,1266.00
2023-05-15T10:49:08.840Z,1286.00
2023-05-15T10:50:08.831Z,1292.00
2023-05-15T10:51:10.633Z,1323.00
2023-05-15T10:52:08.956Z,1328.00
2023-05-15T10:53:08.963Z,1344.00
2023-05-15T10:54:09.374Z,1368.00
2023-05-15T10:55:09.095Z,1391.00
2023-05-15T10:56:09.092Z,1404.00
2023-05-15T10:57:09.137Z,1418.00
2023-05-15T10:58:09.185Z,1426.00
2023-05-15T10:59:09.328Z,1442.00
2023-05-15T11:00:09.312Z,1464.00
2023-05-15T11:01:09.922Z,1475.00
2023-05-15T11:02:09.373Z,1492.00
2023-05-15T11:03:09.486Z,1507.00
2023-05-15T11:04:09.543Z,1515.00
2023-05-15T11:05:09.552Z,1537.00
2023-05-15T11:06:09.615Z,1559.00
2023-05-15T11:07:09.637Z,1589.00
2023-05-15T11:08:09.658Z,1591.00
2023-05-15T11:09:09.682Z,1600.00
2023-05-15T11:10:09.759Z,1615.00
2023-05-15T11:11:10.479Z,1643.00
2023-05-15T11:12:09.858Z,1662.00
2023-05-15T11:13:10.379Z,1686.00
2023-05-15T11:14:09.917Z,1694.00
2023-05-15T11:15:09.986Z,1727.00
2023-05-15T11:16:11.590Z,1739.00
2023-05-15T11:17:10.115Z,1770.00
2023-05-15T11:18:10.120Z,1784.00
2023-05-15T11:19:10.163Z,1824.00
2023-05-15T11:20:10.212Z,1836.00
2023-05-15T11:21:11.865Z,1844.00
2023-05-15T11:22:10.231Z,1867.00
2023-05-15T11:23:10.234Z,1880.00
2023-05-15T11:24:10.295Z,1908.00
2023-05-15T11:25:10.329Z,1923.00
2023-05-15T11:26:10.378Z,1893.00
2023-05-15T11:27:10.447Z,1864.00
2023-05-15T11:28:11.401Z,1874.00
2023-05-15T11:29:10.484Z,1891.00
2023-05-15T11:30:10.556Z,1889.00
2023-05-15T11:31:10.616Z,1893.00
2023-05-15T11:32:10.711Z,1883.00
2023-05-15T11:33:10.753Z,1849.00
2023-05-15T11:34:10.822Z,1846.00
2023-05-15T11:35:10.837Z,1806.00
2023-05-15T11:36:10.875Z,1789.00
2023-05-15T11:37:10.936Z,1753.00
2023-05-15T11:38:11.075Z,1758.00
2023-05-15T11:39:11.162Z,1742.00
2023-05-15T11:40:11.320Z,1734.00
2023-05-15T11:41:11.284Z,1714.00
2023-05-15T11:42:11.343Z,1693.00
2023-05-15T11:43:11.372Z,1672.00
2023-05-15T11:44:11.513Z,1663.00
2023-05-15T11:45:11.495Z,1666.00
2023-05-15T11:46:11.606Z,1649.00
2023-05-15T11:47:11.726Z,1649.00
2023-05-15T11:48:11.719Z,1638.00
2023-05-15T11:49:11.759Z,1615.00
2023-05-15T11:50:11.854Z,1614.00
2023-05-15T11:51:12.039Z,1604.00
2023-05-15T11:52:11.908Z,1593.00
2023-05-15T11:53:12.025Z,1595.00
2023-05-15T11:54:12.402Z,1566.00
2023-05-15T11:55:12.142Z,1556.00
2023-05-15T11:56:12.170Z,1553.00
2023-05-15T11:57:12.279Z,1529.00
2023-05-15T11:58:12.324Z,1504.00
2023-05-15T11:59:12.433Z,1487.00
2023-05-15T12:00:12.390Z,1490.00
2023-05-15T12:01:12.508Z,1467.00
2023-05-15T12:02:12.558Z,1471.00
2023-05-15T12:03:12.619Z,1445.00
2023-05-15T12:04:13.068Z,1409.00
2023-05-15T12:05:12.778Z,1399.00
2023-05-15T12:06:12.736Z,1353.00
2023-05-15T12:07:12.856Z,1350.00
2023-05-15T12:08:12.861Z,1343.00
2023-05-15T12:09:12.908Z,1278.00
2023-05-15T12:10:12.937Z,1101.00
2023-05-15T12:11:12.975Z,985.00
2023-05-15T12:12:13.461Z,812.00
2023-05-15T12:13:13.870Z,657.00
2023-05-15T12:14:12.911Z,628.00
2023-05-15T12:15:12.988Z,614.00
2023-05-15T12:16:13.026Z,556.00
2023-05-15T12:17:12.981Z,529.00
2023-05-15T12:18:13.081Z,527.00
2023-05-15T12:19:13.600Z,520.00
2023-05-15T12:20:13.022Z,499.00
2023-05-15T12:21:13.053Z,500.00
2023-05-15T12:22:13.464Z,500.00